• Join FlightAware (Why Join?)
  • Login
  • US Flag 
02:44PM EDT


 

Airport Tracker/Info


-or-


 

Live Flight TrackerFlight Track Log ✈ N7304T ✈ 06-Sep-2013 ✈ 0B8 - KCDW

Flight Track Log - Related Links

Times and Time Zones

All times are in EDT time to prevent confusion due to time zone crossing. See the N7304T flight status page for this flight to view local times or setup timezone preferences in your user account.

Time Position Orientation Groundspeed Altitude Reporting Facility
EDT Latitude Longitude Course Direction KTS MPH feet Rate Location/Type
01:53PM 41.3331 -72.2244 258° West 139 160 4,700  Level Boston Center
01:54PM 41.3269 -72.2742 261° West 134 154 4,700 -60 Level Boston Center
01:56PM 41.3167 -72.3833 263° West 137 158 4,600 -120 Descending New York TRACON
01:57PM 41.3167 -72.4333 270° West 145 167 4,500 -120 Descending New York TRACON
01:58PM 41.2094 -72.2843 258° West  Level FlightAware Approximate
01:58PM 41.3167 -72.4833 270° West 142 163 4,400  Level New York TRACON
01:59PM 41.3167 -72.5333 270° West 135 155 4,400  Level New York TRACON
02:00PM 41.3167 -72.5833 270° West 134 154 4,500  Climbing New York TRACON
02:01PM 41.3000 -72.6333 246° West 139 160 4,500  Level New York TRACON
02:02PM 41.3000 -72.6833 270° West 137 158 4,500  Level New York TRACON
02:03PM 41.3000 -72.7500 270° West 144 166 4,600  Climbing New York TRACON
02:04PM 41.2833 -72.8000 246° West 140 161 4,600  Level New York TRACON
02:05PM 41.2833 -72.8500 270° West 142 163 4,600  Level New York TRACON
02:06PM 41.2833 -72.9000 270° West 139 160 4,600 -120 Level New York TRACON
02:07PM 41.2667 -72.9500 246° West 142 163 4,400 -180 Descending New York TRACON
02:08PM 41.2500 -72.9833 236° Southwest 142 163 4,300  Descending New York TRACON
02:09PM 41.2333 -73.0333 246° West 131 151 4,400 60 Climbing New York TRACON
02:10PM 41.2167 -73.0667 236° Southwest 135 155 4,500 60 Climbing New York TRACON
02:11PM 41.2000 -73.1167 246° West 133 153 4,600  Climbing New York TRACON
02:12PM 41.1833 -73.1667 246° West 140 161 4,500  Descending New York TRACON
02:13PM 41.1667 -73.2167 246° West 137 158 4,600 60 Climbing New York TRACON
02:14PM 41.1500 -73.2500 236° Southwest 132 152 4,700  Climbing New York TRACON
02:15PM 41.1333 -73.3000 246° West 141 162 4,600 -120 Descending New York TRACON
02:16PM 41.1167 -73.3500 246° West 143 165 4,500 -300 Descending New York TRACON
02:17PM 41.1167 -73.4000 270° West 138 159 4,100 -480 Descending New York TRACON
02:18PM 41.1333 -73.4500 294° West 141 162 3,500 -480 Descending New York TRACON
02:19PM 41.1500 -73.5000 294° West 141 162 3,200 -360 Descending New York TRACON
02:20PM 41.1500 -73.5500 270° West 138 159 2,900 -60 Descending New York TRACON
02:21PM 41.1500 -73.6000 270° West 133 153 3,100 60 Climbing New York TRACON
02:22PM 41.1667 -73.6333 304° West 138 159 3,100 -240 Level New York TRACON
02:23PM 41.1667 -73.6833 270° West 144 166 2,700 -300 Descending New York TRACON
02:24PM 41.1667 -73.7333 270° West 133 153 2,600  Descending New York TRACON
02:25PM 41.1500 -73.7833 246° West 135 155 2,800  Climbing New York TRACON
02:26PM 41.1333 -73.8333 246° West 133 153 2,700 -120 Descending New York TRACON
02:27PM 41.1000 -73.8500 201° Southwest 128 147 2,600 -120 Descending New York TRACON
02:28PM 41.0667 -73.8833 217° Southwest 135 155 2,500 -60 Descending New York TRACON
02:29PM 41.0500 -73.9167 236° Southwest 147 169 2,500 -60 Level New York TRACON
02:30PM 41.0333 -73.9667 246° West 138 159 2,400  Descending New York TRACON
02:31PM 41.0167 -74.0167 246° West 132 152 2,600 180 Climbing New York TRACON
02:32PM 41.0167 -74.0500 270° West 134 154 2,800  Climbing New York TRACON
02:33PM 41.0000 -74.1000 246° West 144 166 2,700 -120 Descending New York TRACON
02:34PM 40.9833 -74.1500 246° West 137 158 2,600 -300 Descending New York TRACON
02:35PM 40.9667 -74.2000 246° West 135 155 2,100 -420 Descending New York TRACON
02:36PM 40.9500 -74.2333 237° Southwest 134 154 1,800 -240 Descending New York TRACON
02:37PM 40.9167 -74.2500 201° Southwest 111 128 1,700 -300 Descending New York TRACON
02:38PM 40.8833 -74.2667 201° Southwest 104 120 1,200 -540 Descending New York TRACON